createdAt,value
2023-04-18T00:00:08.169Z,82.40
2023-04-18T00:01:08.161Z,82.81
2023-04-18T00:02:08.266Z,83.15
2023-04-18T00:03:08.394Z,82.54
2023-04-18T00:04:08.615Z,82.02
2023-04-18T00:05:08.517Z,82.74
2023-04-18T00:06:08.351Z,82.60
2023-04-18T00:07:08.353Z,82.19
2023-04-18T00:08:08.440Z,81.88
2023-04-18T00:09:08.470Z,82.23
2023-04-18T00:10:08.438Z,82.54
2023-04-18T00:11:08.426Z,82.95
2023-04-18T00:12:08.432Z,82.70
2023-04-18T00:13:08.459Z,81.57
2023-04-18T00:14:08.465Z,82.50
2023-04-18T00:15:08.547Z,82.09
2023-04-18T00:16:08.558Z,82.09
2023-04-18T00:17:08.603Z,82.19
2023-04-18T00:18:08.587Z,82.19
2023-04-18T00:19:09.415Z,82.09
2023-04-18T00:20:08.593Z,82.29
2023-04-18T00:21:08.788Z,82.40
2023-04-18T00:22:08.700Z,82.70
2023-04-18T00:23:08.678Z,82.40
2023-04-18T00:24:08.699Z,82.29
2023-04-18T00:25:08.726Z,81.98
2023-04-18T00:26:08.744Z,82.81
2023-04-18T00:27:08.848Z,81.77
2023-04-18T00:28:08.789Z,81.77
2023-04-18T00:29:08.864Z,81.77
2023-04-18T00:30:08.867Z,81.26
2023-04-18T00:31:08.892Z,81.26
2023-04-18T00:32:08.978Z,81.77
2023-04-18T00:33:08.990Z,81.77
2023-04-18T00:34:08.996Z,81.53
2023-04-18T00:35:09.013Z,80.95
2023-04-18T00:36:09.055Z,80.85
2023-04-18T00:37:09.143Z,80.95
2023-04-18T00:38:09.170Z,80.95
2023-04-18T00:39:09.122Z,80.75
2023-04-18T00:40:09.206Z,80.85
2023-04-18T00:41:09.180Z,80.91
2023-04-18T00:42:09.249Z,80.81
2023-04-18T00:43:09.290Z,81.16
2023-04-18T00:44:09.274Z,80.91
2023-04-18T00:45:09.274Z,81.26
2023-04-18T00:46:09.366Z,81.16
2023-04-18T00:47:09.333Z,80.91
2023-04-18T00:48:09.434Z,80.85
2023-04-18T00:49:09.381Z,80.95
2023-04-18T00:50:09.399Z,81.12
2023-04-18T00:51:09.412Z,81.02
2023-04-18T00:52:09.445Z,80.91
2023-04-18T00:53:09.525Z,80.95
2023-04-18T00:54:09.516Z,80.33
2023-04-18T00:55:09.499Z,80.09
2023-04-18T00:56:09.540Z,80.65
2023-04-18T00:57:09.575Z,80.71
2023-04-18T00:58:09.666Z,81.02
2023-04-18T00:59:09.665Z,80.85
2023-04-18T01:00:09.854Z,80.91
2023-04-18T01:01:09.753Z,80.81
2023-04-18T01:02:09.688Z,80.91
2023-04-18T01:03:09.743Z,80.51
2023-04-18T01:04:09.912Z,81.05
2023-04-18T01:05:09.750Z,80.75
2023-04-18T01:06:09.740Z,79.99
2023-04-18T01:07:10.328Z,80.75
2023-04-18T01:08:09.869Z,80.91
2023-04-18T01:09:09.893Z,80.81
2023-04-18T01:10:09.861Z,80.75
2023-04-18T01:11:09.864Z,81.05
2023-04-18T01:12:09.881Z,80.51
2023-04-18T01:13:09.951Z,80.40
2023-04-18T01:14:09.972Z,80.61
2023-04-18T01:15:09.959Z,80.40
2023-04-18T01:16:10.088Z,80.91
2023-04-18T01:17:09.996Z,80.71
2023-04-18T01:18:10.013Z,80.81
2023-04-18T01:19:10.070Z,80.71
2023-04-18T01:20:10.050Z,80.61
2023-04-18T01:21:10.095Z,81.05
2023-04-18T01:22:10.072Z,80.95
2023-04-18T01:23:10.099Z,80.85
2023-04-18T01:24:10.276Z,80.81
2023-04-18T01:25:10.134Z,80.91
2023-04-18T01:26:10.158Z,80.75
2023-04-18T01:27:10.195Z,81.12
2023-04-18T01:28:10.204Z,80.75
2023-04-18T01:29:10.316Z,80.81
2023-04-18T01:30:10.258Z,81.05
2023-04-18T01:31:10.303Z,81.05
2023-04-18T01:32:10.309Z,81.23
2023-04-18T01:33:10.301Z,81.77
2023-04-18T01:34:10.379Z,81.53
2023-04-18T01:35:10.408Z,82.35
2023-04-18T01:36:10.391Z,82.29
2023-04-18T01:37:10.396Z,82.29
2023-04-18T01:38:10.419Z,82.35
2023-04-18T01:39:10.474Z,82.19
2023-04-18T01:40:10.512Z,82.15
2023-04-18T01:41:10.464Z,82.29
2023-04-18T01:42:10.487Z,82.19
2023-04-18T01:43:10.531Z,82.05
2023-04-18T01:44:10.573Z,82.19
2023-04-18T01:45:10.607Z,82.19
2023-04-18T01:46:10.619Z,82.15
2023-04-18T01:47:10.587Z,82.81
2023-04-18T01:48:10.692Z,82.35
2023-04-18T01:49:10.696Z,82.29
2023-04-18T01:50:10.648Z,81.84
2023-04-18T01:51:10.727Z,82.09
2023-04-18T01:52:10.679Z,82.40
2023-04-18T01:53:10.701Z,82.81
2023-04-18T01:54:10.851Z,82.09
2023-04-18T01:55:10.779Z,81.98
2023-04-18T01:56:10.853Z,81.57
2023-04-18T01:57:10.819Z,81.98
2023-04-18T01:58:10.824Z,82.50
2023-04-18T01:59:10.916Z,82.19
2023-04-18T02:00:10.888Z,82.50
2023-04-18T02:01:10.939Z,82.19
2023-04-18T02:02:11.039Z,82.50
2023-04-18T02:03:11.230Z,82.50
2023-04-18T02:04:11.185Z,82.19
2023-04-18T02:05:10.995Z,81.37
2023-04-18T02:06:11.015Z,81.57
2023-04-18T02:07:11.126Z,82.19
2023-04-18T02:08:11.070Z,81.88
2023-04-18T02:09:11.205Z,81.88
2023-04-18T02:10:11.129Z,81.67
2023-04-18T02:11:11.150Z,81.77
2023-04-18T02:12:11.214Z,81.57
2023-04-18T02:13:11.215Z,82.09
2023-04-18T02:14:11.517Z,81.88
2023-04-18T02:15:11.253Z,81.57
2023-04-18T02:16:11.305Z,81.40
2023-04-18T02:17:11.306Z,82.50
2023-04-18T02:18:11.327Z,82.12
2023-04-18T02:19:11.443Z,81.92
2023-04-18T02:20:11.425Z,81.77
2023-04-18T02:21:11.398Z,81.57
2023-04-18T02:22:11.497Z,82.02
2023-04-18T02:23:11.457Z,82.40
2023-04-18T02:24:11.765Z,82.84
2023-04-18T02:25:11.546Z,82.40
2023-04-18T02:26:11.516Z,82.40
2023-04-18T02:27:11.576Z,82.33
2023-04-18T02:28:11.603Z,83.01
2023-04-18T02:29:11.629Z,82.91
2023-04-18T02:30:11.721Z,82.74
2023-04-18T02:31:11.672Z,83.05
2023-04-18T02:32:11.705Z,83.15
2023-04-18T02:33:11.694Z,82.64
2023-04-18T02:34:11.974Z,83.26
2023-04-18T02:35:11.848Z,82.84
2023-04-18T02:36:11.796Z,83.01
2023-04-18T02:37:11.827Z,83.22
2023-04-18T02:38:11.823Z,83.47
2023-04-18T02:39:11.885Z,83.05
2023-04-18T02:40:11.960Z,83.47
2023-04-18T02:41:11.931Z,82.84
2023-04-18T02:42:11.949Z,82.43
2023-04-18T02:43:12.008Z,81.47
2023-04-18T02:44:12.392Z,81.67
2023-04-18T02:45:12.107Z,81.40
2023-04-18T02:46:12.123Z,81.37
2023-04-18T02:47:12.124Z,81.61
2023-04-18T02:48:12.175Z,81.61
2023-04-18T02:49:12.185Z,81.20
2023-04-18T02:50:12.248Z,81.16
2023-04-18T02:51:12.224Z,81.71
2023-04-18T02:52:12.290Z,81.51
2023-04-18T02:53:12.281Z,81.09
2023-04-18T02:54:12.508Z,81.51
2023-04-18T02:55:12.426Z,81.81
2023-04-18T02:56:12.394Z,82.02
2023-04-18T02:57:12.430Z,81.51
2023-04-18T02:58:12.460Z,81.71
2023-04-18T02:59:12.489Z,81.09
2023-04-18T03:00:12.566Z,80.99
2023-04-18T03:01:12.567Z,80.89
2023-04-18T03:02:12.610Z,80.89
2023-04-18T03:03:12.636Z,80.68
2023-04-18T03:04:12.908Z,80.89
2023-04-18T03:05:12.789Z,80.79
2023-04-18T03:06:12.713Z,80.89
2023-04-18T03:07:12.764Z,81.20
2023-04-18T03:08:12.818Z,80.99
2023-04-18T03:09:12.837Z,81.20
2023-04-18T03:10:12.887Z,81.09
2023-04-18T03:11:12.850Z,82.12
2023-04-18T03:12:12.894Z,82.23
2023-04-18T03:13:12.932Z,82.02
2023-04-18T03:14:13.150Z,81.81
2023-04-18T03:15:13.050Z,81.51
2023-04-18T03:16:13.048Z,81.61
2023-04-18T03:17:13.039Z,81.40
2023-04-18T03:18:13.090Z,82.23
2023-04-18T03:19:13.133Z,82.54
2023-04-18T03:20:13.228Z,82.23
2023-04-18T03:21:13.164Z,82.23
2023-04-18T03:22:13.200Z,82.23
2023-04-18T03:23:13.254Z,82.23
2023-04-18T03:24:13.606Z,82.23
2023-04-18T03:25:13.387Z,82.33
2023-04-18T03:26:13.313Z,82.12
2023-04-18T03:27:13.398Z,82.64
2023-04-18T03:28:13.408Z,82.02
2023-04-18T03:29:13.447Z,82.12
2023-04-18T03:30:13.541Z,81.61
2023-04-18T03:31:13.560Z,82.12
2023-04-18T03:32:13.551Z,82.02
2023-04-18T03:33:13.567Z,82.23
2023-04-18T03:34:13.817Z,82.47
2023-04-18T03:35:13.714Z,82.43
2023-04-18T03:36:13.679Z,82.47
2023-04-18T03:37:13.687Z,82.57
2023-04-18T03:38:13.726Z,82.47
2023-04-18T03:39:13.757Z,82.57
2023-04-18T03:40:13.870Z,82.37
2023-04-18T03:41:13.821Z,82.78
2023-04-18T03:42:13.868Z,82.89
2023-04-18T03:43:13.877Z,83.09
2023-04-18T03:44:14.228Z,82.98
2023-04-18T03:45:14.007Z,83.09
2023-04-18T03:46:14.002Z,82.89
2023-04-18T03:47:14.002Z,83.40
2023-04-18T03:48:14.066Z,82.57
2023-04-18T03:49:14.051Z,82.98
2023-04-18T03:50:14.157Z,83.40
2023-04-18T03:51:14.128Z,83.40
2023-04-18T03:52:14.155Z,83.61
2023-04-18T03:53:14.188Z,83.40
2023-04-18T03:54:14.421Z,83.50
2023-04-18T03:55:14.314Z,83.81
2023-04-18T03:56:14.312Z,83.81
2023-04-18T03:57:14.346Z,83.81
2023-04-18T03:58:14.377Z,83.61
2023-04-18T03:59:14.396Z,83.91
2023-04-18T04:00:14.504Z,83.81
2023-04-18T04:01:14.526Z,83.40
2023-04-18T04:02:14.606Z,84.01
2023-04-18T04:03:14.603Z,84.33
2023-04-18T04:04:14.889Z,84.43
2023-04-18T04:05:14.665Z,84.01
2023-04-18T04:06:14.659Z,84.47
2023-04-18T04:07:14.711Z,85.39
2023-04-18T04:08:14.708Z,84.47
2023-04-18T04:09:14.824Z,84.16
2023-04-18T04:10:14.779Z,84.22
2023-04-18T04:11:14.912Z,84.22
2023-04-18T04:12:14.865Z,84.99
2023-04-18T04:13:14.893Z,84.88
2023-04-18T04:14:15.150Z,84.88
2023-04-18T04:15:14.934Z,84.67
2023-04-18T04:16:15.071Z,84.57
2023-04-18T04:17:15.031Z,84.57
2023-04-18T04:18:15.059Z,84.92
2023-04-18T04:19:15.109Z,84.67
2023-04-18T04:20:15.126Z,85.60
2023-04-18T04:21:15.224Z,85.81
2023-04-18T04:22:15.206Z,85.91
2023-04-18T04:23:15.231Z,85.81
2023-04-18T04:24:15.601Z,85.75
2023-04-18T04:25:15.401Z,85.60
2023-04-18T04:26:15.402Z,85.91
2023-04-18T04:27:15.377Z,86.63
2023-04-18T04:28:15.416Z,86.22
2023-04-18T04:29:15.440Z,86.74
2023-04-18T04:30:15.492Z,86.63
2023-04-18T04:31:15.589Z,86.22
2023-04-18T04:32:15.550Z,86.84
2023-04-18T04:33:15.578Z,86.53
2023-04-18T04:34:15.700Z,86.32
2023-04-18T04:35:15.657Z,86.74
2023-04-18T04:36:18.383Z,86.84
2023-04-18T04:37:15.727Z,87.05
2023-04-18T04:38:15.767Z,87.15
2023-04-18T04:39:15.794Z,87.29
2023-04-18T04:40:15.829Z,88.12
2023-04-18T04:41:15.936Z,87.92
2023-04-18T04:42:16.093Z,88.22
2023-04-18T04:43:15.921Z,87.81
2023-04-18T04:44:16.276Z,88.12
2023-04-18T04:45:16.025Z,88.12
2023-04-18T04:46:16.245Z,88.43
2023-04-18T04:47:16.083Z,88.64
2023-04-18T04:48:16.143Z,88.43
2023-04-18T04:49:16.185Z,88.53
2023-04-18T04:50:16.189Z,88.22
2023-04-18T04:51:16.299Z,89.05
2023-04-18T04:52:16.264Z,89.15
2023-04-18T04:53:16.304Z,89.77
2023-04-18T04:54:16.645Z,89.46
2023-04-18T04:55:16.377Z,89.67
2023-04-18T04:56:16.482Z,89.25
2023-04-18T04:57:16.454Z,90.08
2023-04-18T04:58:16.533Z,90.08
2023-04-18T04:59:16.566Z,89.98
2023-04-18T05:00:16.570Z,90.39
2023-04-18T05:01:16.632Z,90.19
2023-04-18T05:02:16.788Z,90.22
2023-04-18T05:03:16.771Z,90.19
2023-04-18T05:04:16.930Z,90.28
2023-04-18T05:05:16.762Z,90.39
2023-04-18T05:06:16.774Z,90.39
2023-04-18T05:07:16.875Z,90.70
2023-04-18T05:08:16.919Z,90.70
2023-04-18T05:09:16.877Z,91.11
2023-04-18T05:10:16.912Z,91.32
2023-04-18T05:11:16.995Z,91.01
2023-04-18T05:12:17.014Z,91.01
2023-04-18T05:13:17.111Z,91.32
2023-04-18T05:14:17.140Z,91.94
2023-04-18T05:15:17.128Z,91.11
2023-04-18T05:16:17.177Z,91.73
2023-04-18T05:17:17.218Z,91.73
2023-04-18T05:18:17.221Z,91.11
2023-04-18T05:19:17.336Z,91.73
2023-04-18T05:20:17.337Z,91.63
2023-04-18T05:21:17.361Z,91.01
2023-04-18T05:22:17.523Z,91.73
2023-04-18T05:23:17.435Z,91.94
2023-04-18T05:24:17.480Z,92.04
2023-04-18T05:25:17.518Z,91.63
2023-04-18T05:26:17.553Z,92.04
2023-04-18T05:27:18.180Z,91.42
2023-04-18T05:28:17.625Z,91.94
2023-04-18T05:29:17.664Z,92.35
2023-04-18T05:30:17.710Z,92.04
2023-04-18T05:31:17.767Z,91.83
2023-04-18T05:32:17.897Z,91.83
2023-04-18T05:33:17.832Z,92.55
2023-04-18T05:34:17.862Z,92.04
2023-04-18T05:35:17.959Z,92.25
2023-04-18T05:36:17.935Z,92.35
2023-04-18T05:37:18.008Z,92.55
2023-04-18T05:38:18.087Z,92.66
2023-04-18T05:39:18.057Z,92.04
2023-04-18T05:40:18.091Z,92.55
2023-04-18T05:41:18.122Z,92.40
2023-04-18T05:42:18.192Z,92.76
2023-04-18T05:43:18.267Z,92.91
2023-04-18T05:44:18.553Z,93.43
2023-04-18T05:45:18.353Z,92.97
2023-04-18T05:46:18.347Z,93.53
2023-04-18T05:47:18.357Z,92.91
2023-04-18T05:48:18.481Z,93.63
2023-04-18T05:49:18.434Z,93.22
2023-04-18T05:50:18.493Z,93.32
2023-04-18T05:51:18.521Z,93.73
2023-04-18T05:52:18.567Z,93.53
2023-04-18T05:53:18.676Z,93.63
2023-04-18T05:54:18.643Z,93.38
2023-04-18T05:55:18.693Z,93.22
2023-04-18T05:56:18.800Z,93.53
2023-04-18T05:57:18.839Z,94.04
2023-04-18T05:58:18.836Z,93.94
2023-04-18T05:59:18.882Z,94.10
2023-04-18T06:00:18.893Z,93.84
2023-04-18T06:01:18.934Z,94.04
2023-04-18T06:02:19.285Z,93.73
2023-04-18T06:03:19.161Z,93.38
2023-04-18T06:04:19.573Z,93.69
2023-04-18T06:05:19.263Z,93.59
2023-04-18T06:06:19.204Z,93.63
2023-04-18T06:07:19.178Z,93.12
2023-04-18T06:08:19.228Z,93.63
2023-04-18T06:09:19.302Z,94.15
2023-04-18T06:10:19.300Z,93.38
2023-04-18T06:11:19.339Z,93.79
2023-04-18T06:12:19.375Z,93.90
2023-04-18T06:13:19.392Z,93.53
2023-04-18T06:14:19.508Z,93.32
2023-04-18T06:15:19.457Z,93.12
2023-04-18T06:16:19.556Z,93.32
2023-04-18T06:17:19.596Z,93.53
2023-04-18T06:18:19.573Z,94.35
2023-04-18T06:19:19.678Z,94.04
2023-04-18T06:20:19.696Z,94.00
2023-04-18T06:21:19.692Z,93.38
2023-04-18T06:22:20.730Z,93.32
2023-04-18T06:23:19.810Z,93.53
2023-04-18T06:24:19.886Z,93.32
2023-04-18T06:25:19.872Z,93.43
2023-04-18T06:26:19.901Z,93.22
2023-04-18T06:27:30.656Z,93.73
2023-04-18T06:28:20.961Z,93.73
2023-04-18T06:29:20.101Z,93.63
2023-04-18T06:30:20.034Z,93.22
2023-04-18T06:31:20.176Z,93.69
2023-04-18T06:32:20.138Z,94.21
2023-04-18T06:33:20.162Z,93.94
2023-04-18T06:34:20.243Z,93.32
2023-04-18T06:35:20.229Z,93.49
2023-04-18T06:36:20.384Z,93.49
2023-04-18T06:37:20.305Z,93.53
2023-04-18T06:38:20.341Z,93.59
2023-04-18T06:39:20.500Z,93.73
2023-04-18T06:40:20.424Z,93.32
2023-04-18T06:41:20.457Z,93.69
2023-04-18T06:42:22.391Z,93.59
2023-04-18T06:43:20.559Z,93.18
2023-04-18T06:44:20.623Z,93.22
2023-04-18T06:45:20.624Z,93.07
2023-04-18T06:46:20.735Z,93.18
2023-04-18T06:47:20.691Z,93.38
2023-04-18T06:48:20.722Z,93.53
2023-04-18T06:49:25.185Z,93.59
2023-04-18T06:50:21.800Z,93.07
2023-04-18T06:51:20.847Z,93.59
2023-04-18T06:52:20.896Z,93.49
2023-04-18T06:53:20.920Z,93.79
2023-04-18T06:54:21.036Z,93.12
2023-04-18T06:55:21.006Z,93.38
2023-04-18T06:56:21.029Z,93.90
2023-04-18T06:57:21.077Z,93.59
2023-04-18T06:58:21.117Z,93.63
2023-04-18T06:59:21.223Z,93.79
2023-04-18T07:00:21.199Z,94.00
2023-04-18T07:01:21.343Z,93.28
2023-04-18T07:02:21.321Z,94.00
2023-04-18T07:03:21.526Z,94.27
2023-04-18T07:04:21.467Z,93.65
2023-04-18T07:05:21.383Z,93.49
2023-04-18T07:06:21.416Z,93.24
2023-04-18T07:07:21.432Z,93.13
2023-04-18T07:08:21.558Z,93.34
2023-04-18T07:09:21.546Z,93.03
2023-04-18T07:10:21.516Z,93.34
2023-04-18T07:11:21.560Z,93.13
2023-04-18T07:12:21.586Z,93.03
2023-04-18T07:13:21.726Z,92.21
2023-04-18T07:14:21.722Z,93.03
2023-04-18T07:15:21.722Z,93.13
2023-04-18T07:16:21.750Z,92.82
2023-04-18T07:17:21.887Z,93.24
2023-04-18T07:18:34.214Z,93.03
2023-04-18T07:19:22.872Z,93.03
2023-04-18T07:20:21.882Z,92.99
2023-04-18T07:21:21.988Z,92.82
2023-04-18T07:22:21.956Z,92.93
2023-04-18T07:23:22.001Z,92.51
2023-04-18T07:24:22.049Z,92.61
2023-04-18T07:25:22.093Z,92.47
2023-04-18T07:26:22.162Z,92.10
2023-04-18T07:27:22.130Z,92.27
2023-04-18T07:28:22.189Z,92.06
2023-04-18T07:29:22.207Z,92.68
2023-04-18T07:30:22.244Z,92.16
2023-04-18T07:31:22.373Z,92.12
2023-04-18T07:32:22.349Z,92.43
2023-04-18T07:33:22.330Z,92.12
2023-04-18T07:34:22.374Z,92.63
2023-04-18T07:35:22.450Z,91.91
2023-04-18T07:36:22.417Z,91.71
2023-04-18T07:37:22.476Z,91.50
2023-04-18T07:38:22.491Z,91.25
2023-04-18T07:39:22.500Z,90.88
2023-04-18T07:40:22.719Z,90.37
2023-04-18T07:41:22.548Z,90.37
2023-04-18T07:42:22.598Z,90.92
2023-04-18T07:43:22.636Z,90.57
2023-04-18T07:44:22.644Z,91.75
2023-04-18T07:45:22.723Z,91.60
2023-04-18T07:46:22.817Z,91.50
2023-04-18T07:47:22.778Z,91.81
2023-04-18T07:48:22.862Z,91.81
2023-04-18T07:49:22.778Z,90.99
2023-04-18T07:50:22.810Z,90.73
2023-04-18T07:51:22.882Z,90.26
2023-04-18T07:52:22.862Z,90.37
2023-04-18T07:53:22.876Z,90.26
2023-04-18T07:54:22.907Z,90.78
2023-04-18T07:55:22.935Z,91.05
2023-04-18T07:56:23.052Z,91.15
2023-04-18T07:57:22.992Z,91.36
2023-04-18T07:58:23.009Z,91.77
2023-04-18T07:59:23.013Z,91.11
2023-04-18T08:00:23.031Z,90.80
2023-04-18T08:01:23.141Z,89.97
2023-04-18T08:02:23.175Z,89.62
2023-04-18T08:03:23.302Z,89.83
2023-04-18T08:04:23.302Z,89.73
2023-04-18T08:05:23.193Z,89.52
2023-04-18T08:06:23.214Z,89.62
2023-04-18T08:07:23.176Z,90.14
2023-04-18T08:08:23.186Z,89.69
2023-04-18T08:09:23.231Z,89.01
2023-04-18T08:10:23.874Z,89.42
2023-04-18T08:11:23.308Z,88.39
2023-04-18T08:12:23.499Z,88.59
2023-04-18T08:13:23.293Z,88.59
2023-04-18T08:14:23.281Z,89.52
2023-04-18T08:15:23.310Z,89.79
2023-04-18T08:16:23.416Z,89.69
2023-04-18T08:17:23.322Z,88.04
2023-04-18T08:18:23.384Z,89.38
2023-04-18T08:19:23.327Z,89.58
2023-04-18T08:20:23.336Z,88.14
2023-04-18T08:21:23.437Z,87.84
2023-04-18T08:22:23.364Z,87.42
2023-04-18T08:23:23.364Z,87.63
2023-04-18T08:24:23.377Z,87.32
2023-04-18T08:25:23.370Z,87.79
2023-04-18T08:26:23.483Z,88.20
2023-04-18T08:27:23.399Z,87.28
2023-04-18T08:28:23.432Z,87.07
2023-04-18T08:29:23.407Z,88.10
2023-04-18T08:30:23.404Z,87.18
2023-04-18T08:31:23.484Z,86.87
2023-04-18T08:32:23.431Z,87.45
2023-04-18T08:33:23.434Z,86.97
2023-04-18T08:34:23.418Z,86.72
2023-04-18T08:35:23.414Z,86.11
2023-04-18T08:36:23.466Z,87.13
2023-04-18T08:37:23.408Z,86.83
2023-04-18T08:38:23.429Z,86.68
2023-04-18T08:39:25.327Z,85.55
2023-04-18T08:40:23.442Z,85.18
2023-04-18T08:41:23.511Z,85.90
2023-04-18T08:42:23.416Z,85.80
2023-04-18T08:43:23.404Z,85.28
2023-04-18T08:44:23.488Z,86.11
2023-04-18T08:45:23.416Z,86.42
2023-04-18T08:46:23.558Z,86.48
2023-04-18T08:47:23.452Z,87.75
2023-04-18T08:48:23.481Z,87.10
2023-04-18T08:49:23.401Z,87.88
2023-04-18T08:50:23.452Z,87.05
2023-04-18T08:51:23.454Z,85.93
2023-04-18T08:52:23.398Z,86.24
2023-04-18T08:53:23.408Z,85.41
2023-04-18T08:54:24.632Z,85.31
2023-04-18T08:55:23.452Z,84.55
2023-04-18T08:56:23.397Z,84.66
2023-04-18T08:57:23.374Z,85.58
2023-04-18T08:58:23.419Z,84.86
2023-04-18T08:59:23.396Z,84.96
2023-04-18T09:00:23.558Z,84.86
2023-04-18T09:01:23.390Z,83.83
2023-04-18T09:02:23.523Z,84.86
2023-04-18T09:03:23.467Z,84.72
2023-04-18T09:04:23.447Z,84.61
2023-04-18T09:05:23.360Z,84.10
2023-04-18T09:06:23.418Z,84.25
2023-04-18T09:07:23.348Z,84.72
2023-04-18T09:08:23.399Z,85.64
2023-04-18T09:09:23.332Z,84.41
2023-04-18T09:10:23.338Z,84.14
2023-04-18T09:11:23.322Z,83.63
2023-04-18T09:12:23.345Z,83.83
2023-04-18T09:13:24.575Z,84.25
2023-04-18T09:14:23.312Z,84.76
2023-04-18T09:15:23.380Z,83.73
2023-04-18T09:16:23.526Z,84.76
2023-04-18T09:17:23.285Z,85.47
2023-04-18T09:18:23.273Z,85.68
2023-04-18T09:19:23.280Z,85.23
2023-04-18T09:20:23.360Z,84.00
2023-04-18T09:21:23.326Z,84.72
2023-04-18T09:22:23.257Z,83.69
2023-04-18T09:23:23.251Z,84.68
2023-04-18T09:24:23.230Z,82.93
2023-04-18T09:25:23.241Z,82.63
2023-04-18T09:26:23.215Z,83.14
2023-04-18T09:27:23.331Z,83.20
2023-04-18T09:28:23.211Z,83.61
2023-04-18T09:29:23.187Z,82.90
2023-04-18T09:30:23.182Z,82.39
2023-04-18T09:31:23.216Z,82.69
2023-04-18T09:32:23.387Z,83.00
2023-04-18T09:33:23.147Z,81.77
2023-04-18T09:34:23.131Z,81.67
2023-04-18T09:35:23.101Z,82.35
2023-04-18T09:36:23.112Z,82.04
2023-04-18T09:37:23.143Z,82.45
2023-04-18T09:38:23.064Z,81.43
2023-04-18T09:39:23.060Z,80.60
2023-04-18T09:40:23.113Z,80.30
2023-04-18T09:41:23.103Z,81.22
2023-04-18T09:42:23.010Z,81.22
2023-04-18T09:43:22.976Z,80.51
2023-04-18T09:44:22.968Z,80.30
2023-04-18T09:45:23.022Z,79.62
2023-04-18T09:46:22.976Z,80.13
2023-04-18T09:47:23.319Z,81.05
2023-04-18T09:48:22.985Z,81.09
2023-04-18T09:49:22.900Z,81.81
2023-04-18T09:50:23.016Z,82.08
2023-04-18T09:51:22.878Z,81.98
2023-04-18T09:52:22.889Z,82.28
2023-04-18T09:53:22.868Z,81.67
2023-04-18T09:54:22.827Z,82.35
2023-04-18T09:55:22.881Z,82.35
2023-04-18T09:56:22.797Z,80.91
2023-04-18T09:57:22.788Z,81.79
2023-04-18T09:58:22.779Z,81.29
2023-04-18T09:59:22.752Z,80.69
2023-04-18T10:00:22.824Z,79.37
2023-04-18T10:01:22.728Z,79.27
2023-04-18T10:02:22.804Z,78.96
2023-04-18T10:03:22.756Z,78.31
2023-04-18T10:04:23.008Z,78.82
2023-04-18T10:05:26.189Z,78.41
2023-04-18T10:06:23.807Z,78.24
2023-04-18T10:07:24.218Z,77.83
2023-04-18T10:08:29.843Z,78.34
2023-04-18T10:09:23.312Z,78.75
2023-04-18T10:10:23.758Z,78.86
2023-04-18T10:11:22.648Z,78.55
2023-04-18T10:12:24.454Z,78.79
2023-04-18T10:13:22.493Z,78.69
2023-04-18T10:14:23.362Z,80.16
2023-04-18T10:15:22.762Z,79.64
2023-04-18T10:16:22.444Z,80.33
2023-04-18T10:17:23.557Z,80.33
2023-04-18T10:18:26.251Z,79.20
2023-04-18T10:19:23.270Z,79.96
2023-04-18T10:20:23.239Z,78.89
2023-04-18T10:21:44.166Z,79.44
2023-04-18T10:22:22.965Z,79.96
2023-04-18T10:23:23.130Z,78.72
2023-04-18T10:24:23.130Z,79.03
2023-04-18T10:25:25.846Z,79.13
2023-04-18T10:26:22.316Z,79.03
2023-04-18T10:27:22.205Z,79.54
2023-04-18T10:28:24.178Z,80.36
2023-04-18T10:29:23.171Z,80.16
2023-04-18T10:30:24.008Z,80.36
2023-04-18T10:31:58.726Z,80.26
2023-04-18T10:33:52.822Z,80.26
2023-04-18T10:34:47.414Z,80.57
2023-04-18T10:35:47.506Z,80.43
2023-04-18T10:36:45.437Z,80.60
2023-04-18T10:37:46.922Z,80.19
2023-04-18T10:38:45.780Z,80.08
2023-04-18T10:40:09.387Z,79.98
2023-04-18T10:41:40.143Z,79.78
2023-04-18T10:41:48.805Z,78.89
2023-04-18T10:42:45.662Z,78.69
2023-04-18T10:44:54.057Z,79.82
2023-04-18T10:45:54.041Z,80.02
2023-04-18T10:47:15.095Z,78.79
2023-04-18T10:47:54.266Z,78.49
2023-04-18T10:48:54.040Z,79.00
2023-04-18T10:49:54.012Z,79.50
2023-04-18T10:50:54.025Z,78.69
2023-04-18T10:51:54.047Z,80.22
2023-04-18T10:52:53.971Z,80.12
2023-04-18T10:53:53.955Z,80.19
2023-04-18T10:54:53.963Z,79.88
2023-04-18T10:55:53.934Z,78.86
2023-04-18T10:56:54.008Z,79.16
2023-04-18T10:57:53.924Z,78.75
2023-04-18T10:58:53.916Z,78.45
2023-04-18T10:59:53.913Z,78.86
2023-04-18T11:00:53.901Z,78.65
2023-04-18T11:01:54.009Z,78.45
2023-04-18T11:02:54.106Z,77.32
2023-04-18T11:03:53.962Z,77.63
2023-04-18T11:04:53.927Z,78.96
2023-04-18T11:05:53.816Z,77.94
2023-04-18T11:06:53.863Z,78.38
2023-04-18T11:07:53.817Z,78.79
2023-04-18T11:08:53.825Z,78.86
2023-04-18T11:09:53.865Z,78.86
2023-04-18T11:10:53.776Z,79.88
2023-04-18T11:11:53.766Z,77.83
2023-04-18T11:12:53.763Z,78.24
2023-04-18T11:13:53.756Z,77.83
2023-04-18T11:14:53.816Z,78.45
2023-04-18T11:15:53.734Z,78.65
2023-04-18T11:16:53.754Z,78.14
2023-04-18T11:17:53.864Z,77.94
2023-04-18T11:18:53.699Z,77.63
2023-04-18T11:19:53.762Z,77.01
2023-04-18T11:20:53.697Z,76.91
2023-04-18T11:21:53.674Z,77.53
2023-04-18T11:22:53.697Z,78.14
2023-04-18T11:23:53.714Z,79.27
2023-04-18T11:24:53.626Z,78.00
2023-04-18T11:25:53.669Z,78.27
2023-04-18T11:26:53.649Z,76.64
2023-04-18T11:27:53.602Z,78.44
2023-04-18T11:28:53.655Z,77.11
2023-04-18T11:29:53.600Z,76.26
2023-04-18T11:30:53.595Z,75.04
2023-04-18T11:31:56.690Z,74.83
2023-04-18T11:32:53.597Z,74.49
2023-04-18T11:33:53.605Z,74.93
2023-04-18T11:34:53.537Z,73.40
2023-04-18T11:35:53.507Z,74.42
2023-04-18T11:36:53.518Z,74.87
2023-04-18T11:37:53.492Z,76.77
2023-04-18T11:38:53.575Z,74.32
2023-04-18T11:39:53.482Z,75.34
2023-04-18T11:40:53.483Z,74.32
2023-04-18T11:41:53.452Z,74.22
2023-04-18T11:42:53.436Z,73.71
2023-04-18T11:43:53.505Z,74.11
2023-04-18T11:44:53.444Z,73.71
2023-04-18T11:45:53.453Z,74.52
2023-04-18T11:46:53.407Z,76.22
2023-04-18T11:47:53.501Z,75.10
2023-04-18T11:48:53.446Z,73.74
2023-04-18T11:49:55.257Z,73.74
2023-04-18T11:50:53.383Z,72.72
2023-04-18T11:51:53.382Z,72.41
2023-04-18T11:52:53.347Z,72.24
2023-04-18T11:53:53.407Z,72.96
2023-04-18T11:54:53.339Z,72.58
2023-04-18T11:55:53.359Z,72.79
2023-04-18T11:56:53.299Z,72.79
2023-04-18T11:57:53.273Z,73.36
2023-04-18T11:58:53.338Z,74.73
2023-04-18T11:59:53.270Z,73.36
2023-04-18T12:00:53.312Z,73.06
2023-04-18T12:01:53.282Z,73.27
2023-04-18T12:02:53.426Z,73.94
2023-04-18T12:03:53.431Z,73.19
2023-04-18T12:04:53.639Z,73.50
2023-04-18T12:05:53.375Z,74.93
2023-04-18T12:06:53.184Z,74.49
2023-04-18T12:07:53.173Z,71.84
2023-04-18T12:08:54.104Z,72.14
2023-04-18T12:09:53.152Z,73.13
2023-04-18T12:10:53.338Z,71.19
2023-04-18T12:11:53.126Z,71.33
2023-04-18T12:12:53.173Z,72.04
2023-04-18T12:13:53.105Z,70.72
2023-04-18T12:14:53.189Z,71.84
2023-04-18T12:15:53.098Z,72.14
2023-04-18T12:16:53.085Z,72.65
2023-04-18T12:17:53.155Z,72.52
2023-04-18T12:18:53.051Z,72.31
2023-04-18T12:19:53.058Z,70.41
2023-04-18T12:20:53.066Z,71.12
2023-04-18T12:21:53.025Z,72.58
2023-04-18T12:22:53.033Z,72.48
2023-04-18T12:23:53.078Z,71.36
2023-04-18T12:24:53.007Z,73.81
2023-04-18T12:25:53.203Z,73.60
2023-04-18T12:26:53.057Z,72.89
2023-04-18T12:27:52.966Z,71.56
2023-04-18T12:28:52.960Z,73.77
2023-04-18T12:29:52.939Z,72.55
2023-04-18T12:30:53.008Z,74.08
2023-04-18T12:31:53.235Z,72.14
2023-04-18T12:32:52.940Z,71.60
2023-04-18T12:33:52.908Z,72.41
2023-04-18T12:34:52.883Z,70.17
2023-04-18T12:35:52.959Z,71.80
2023-04-18T12:36:52.869Z,70.58
2023-04-18T12:37:52.855Z,70.17
2023-04-18T12:38:52.941Z,69.97
2023-04-18T12:39:52.836Z,69.39
2023-04-18T12:40:52.823Z,69.63
2023-04-18T12:41:52.810Z,72.14
2023-04-18T12:42:52.833Z,70.92
2023-04-18T12:43:52.857Z,70.41
2023-04-18T12:44:52.856Z,70.92
2023-04-18T12:45:52.778Z,71.84
2023-04-18T12:46:52.846Z,72.45
2023-04-18T12:47:52.892Z,71.70
2023-04-18T12:48:53.154Z,71.19
2023-04-18T12:49:52.774Z,72.31
2023-04-18T12:50:52.751Z,70.78
2023-04-18T12:51:52.721Z,70.78
2023-04-18T12:52:52.701Z,69.32
2023-04-18T12:53:52.762Z,69.06
2023-04-18T12:54:52.785Z,69.26